sensor_id;sensor_type;location;lat;lon;timestamp;P1;durP1;ratioP1;P2;durP2;ratioP2
8683;SDS011;4379;59.744;18.206;2022-09-03T00:01:42;0.53;;;0.53;;
8683;SDS011;4379;59.744;18.206;2022-09-03T00:04:31;0.50;;;0.50;;
8683;SDS011;4379;59.744;18.206;2022-09-03T00:11:02;0.77;;;0.60;;
8683;SDS011;4379;59.744;18.206;2022-09-03T00:13:24;0.93;;;0.60;;
8683;SDS011;4379;59.744;18.206;2022-09-03T00:16:05;0.50;;;0.50;;
8683;SDS011;4379;59.744;18.206;2022-09-03T00:18:42;0.50;;;0.50;;
8683;SDS011;4379;59.744;18.206;2022-09-03T00:24:18;0.90;;;0.50;;
8683;SDS011;4379;59.744;18.206;2022-09-03T00:26:49;0.67;;;0.60;;
8683;SDS011;4379;59.744;18.206;2022-09-03T00:29:26;1.20;;;0.60;;
8683;SDS011;4379;59.744;18.206;2022-09-03T00:32:10;0.73;;;0.73;;
8683;SDS011;4379;59.744;18.206;2022-09-03T00:34:47;0.60;;;0.60;;
8683;SDS011;4379;59.744;18.206;2022-09-03T00:37:21;1.60;;;0.60;;
8683;SDS011;4379;59.744;18.206;2022-09-03T00:39:48;1.10;;;0.57;;
8683;SDS011;4379;59.744;18.206;2022-09-03T00:51:09;1.00;;;0.60;;
8683;SDS011;4379;59.744;18.206;2022-09-03T00:59:25;0.50;;;0.50;;
8683;SDS011;4379;59.744;18.206;2022-09-03T01:16:47;0.50;;;0.50;;
8683;SDS011;4379;59.744;18.206;2022-09-03T01:22:18;0.50;;;0.50;;
8683;SDS011;4379;59.744;18.206;2022-09-03T01:30:52;0.50;;;0.50;;
8683;SDS011;4379;59.744;18.206;2022-09-03T01:36:50;0.30;;;0.30;;
8683;SDS011;4379;59.744;18.206;2022-09-03T01:42:18;0.50;;;0.50;;
8683;SDS011;4379;59.744;18.206;2022-09-03T01:45:30;3.30;;;0.80;;
8683;SDS011;4379;59.744;18.206;2022-09-03T01:50:49;0.63;;;0.63;;
8683;SDS011;4379;59.744;18.206;2022-09-03T02:02:41;0.80;;;0.80;;
8683;SDS011;4379;59.744;18.206;2022-09-03T02:05:17;2.20;;;0.80;;
8683;SDS011;4379;59.744;18.206;2022-09-03T02:07:56;0.60;;;0.60;;
8683;SDS011;4379;59.744;18.206;2022-09-03T02:13:14;0.87;;;0.70;;
8683;SDS011;4379;59.744;18.206;2022-09-03T02:15:48;1.23;;;0.80;;
8683;SDS011;4379;59.744;18.206;2022-09-03T02:18:20;0.60;;;0.60;;
8683;SDS011;4379;59.744;18.206;2022-09-03T02:20:54;1.07;;;0.80;;
8683;SDS011;4379;59.744;18.206;2022-09-03T02:23:24;0.70;;;0.70;;
8683;SDS011;4379;59.744;18.206;2022-09-03T02:25:55;0.50;;;0.50;;
8683;SDS011;4379;59.744;18.206;2022-09-03T02:28:28;1.03;;;0.60;;
8683;SDS011;4379;59.744;18.206;2022-09-03T02:30:57;1.80;;;0.70;;
8683;SDS011;4379;59.744;18.206;2022-09-03T02:33:25;0.63;;;0.60;;
8683;SDS011;4379;59.744;18.206;2022-09-03T02:35:53;3.20;;;0.87;;
8683;SDS011;4379;59.744;18.206;2022-09-03T02:38:22;0.73;;;0.73;;
8683;SDS011;4379;59.744;18.206;2022-09-03T02:40:52;1.47;;;0.70;;
8683;SDS011;4379;59.744;18.206;2022-09-03T02:43:25;0.97;;;0.60;;
8683;SDS011;4379;59.744;18.206;2022-09-03T02:46:21;0.70;;;0.70;;
8683;SDS011;4379;59.744;18.206;2022-09-03T02:48:53;0.70;;;0.70;;
8683;SDS011;4379;59.744;18.206;2022-09-03T02:51:21;0.80;;;0.80;;
8683;SDS011;4379;59.744;18.206;2022-09-03T02:53:49;0.60;;;0.60;;
8683;SDS011;4379;59.744;18.206;2022-09-03T02:56:17;0.70;;;0.70;;
8683;SDS011;4379;59.744;18.206;2022-09-03T02:58:47;0.70;;;0.70;;
8683;SDS011;4379;59.744;18.206;2022-09-03T03:01:14;0.60;;;0.60;;
8683;SDS011;4379;59.744;18.206;2022-09-03T03:03:49;0.60;;;0.60;;
8683;SDS011;4379;59.744;18.206;2022-09-03T03:06:18;0.63;;;0.63;;
8683;SDS011;4379;59.744;18.206;2022-09-03T03:08:47;0.70;;;0.70;;
8683;SDS011;4379;59.744;18.206;2022-09-03T03:11:16;0.60;;;0.60;;
8683;SDS011;4379;59.744;18.206;2022-09-03T03:13:45;0.80;;;0.80;;
8683;SDS011;4379;59.744;18.206;2022-09-03T03:16:13;0.60;;;0.60;;
8683;SDS011;4379;59.744;18.206;2022-09-03T03:18:41;0.73;;;0.73;;
8683;SDS011;4379;59.744;18.206;2022-09-03T03:21:15;1.17;;;0.60;;
8683;SDS011;4379;59.744;18.206;2022-09-03T03:23:44;0.70;;;0.70;;
8683;SDS011;4379;59.744;18.206;2022-09-03T03:26:12;1.13;;;0.67;;
8683;SDS011;4379;59.744;18.206;2022-09-03T03:28:45;0.60;;;0.60;;
8683;SDS011;4379;59.744;18.206;2022-09-03T03:31:16;1.37;;;0.90;;
8683;SDS011;4379;59.744;18.206;2022-09-03T03:36:23;0.90;;;0.90;;
8683;SDS011;4379;59.744;18.206;2022-09-03T03:38:52;0.77;;;0.77;;
8683;SDS011;4379;59.744;18.206;2022-09-03T03:41:22;0.70;;;0.70;;
8683;SDS011;4379;59.744;18.206;2022-09-03T03:44:01;0.93;;;0.80;;
8683;SDS011;4379;59.744;18.206;2022-09-03T03:46:31;0.90;;;0.90;;
8683;SDS011;4379;59.744;18.206;2022-09-03T03:48:59;0.90;;;0.90;;
8683;SDS011;4379;59.744;18.206;2022-09-03T03:51:27;0.77;;;0.77;;
8683;SDS011;4379;59.744;18.206;2022-09-03T03:53:56;0.70;;;0.70;;
8683;SDS011;4379;59.744;18.206;2022-09-03T03:56:30;0.97;;;0.80;;
8683;SDS011;4379;59.744;18.206;2022-09-03T03:58:58;0.67;;;0.67;;
8683;SDS011;4379;59.744;18.206;2022-09-03T04:01:26;1.47;;;0.70;;
8683;SDS011;4379;59.744;18.206;2022-09-03T04:03:55;2.80;;;0.70;;
8683;SDS011;4379;59.744;18.206;2022-09-03T04:06:24;0.60;;;0.60;;
8683;SDS011;4379;59.744;18.206;2022-09-03T04:08:51;0.57;;;0.57;;
8683;SDS011;4379;59.744;18.206;2022-09-03T04:11:19;0.80;;;0.80;;
8683;SDS011;4379;59.744;18.206;2022-09-03T04:13:49;0.80;;;0.80;;
8683;SDS011;4379;59.744;18.206;2022-09-03T04:16:21;1.33;;;0.60;;
8683;SDS011;4379;59.744;18.206;2022-09-03T04:18:52;0.80;;;0.80;;
8683;SDS011;4379;59.744;18.206;2022-09-03T04:21:24;0.70;;;0.70;;
8683;SDS011;4379;59.744;18.206;2022-09-03T04:23:54;2.10;;;0.63;;
8683;SDS011;4379;59.744;18.206;2022-09-03T04:26:24;1.90;;;0.70;;
8683;SDS011;4379;59.744;18.206;2022-09-03T04:28:59;0.50;;;0.50;;
8683;SDS011;4379;59.744;18.206;2022-09-03T04:31:29;0.83;;;0.83;;
8683;SDS011;4379;59.744;18.206;2022-09-03T04:33:57;1.90;;;1.80;;
8683;SDS011;4379;59.744;18.206;2022-09-03T04:36:26;1.77;;;1.70;;
8683;SDS011;4379;59.744;18.206;2022-09-03T04:38:56;1.80;;;1.80;;
8683;SDS011;4379;59.744;18.206;2022-09-03T04:41:25;1.93;;;1.83;;
8683;SDS011;4379;59.744;18.206;2022-09-03T04:43:55;2.80;;;2.60;;
8683;SDS011;4379;59.744;18.206;2022-09-03T04:46:24;2.37;;;2.10;;
8683;SDS011;4379;59.744;18.206;2022-09-03T04:48:59;1.90;;;1.90;;
8683;SDS011;4379;59.744;18.206;2022-09-03T04:51:28;1.37;;;1.27;;
8683;SDS011;4379;59.744;18.206;2022-09-03T04:53:57;1.37;;;1.07;;
8683;SDS011;4379;59.744;18.206;2022-09-03T04:56:27;0.90;;;0.90;;
8683;SDS011;4379;59.744;18.206;2022-09-03T04:58:58;1.40;;;0.90;;
8683;SDS011;4379;59.744;18.206;2022-09-03T05:01:28;0.90;;;0.90;;
8683;SDS011;4379;59.744;18.206;2022-09-03T05:03:58;1.10;;;0.70;;
8683;SDS011;4379;59.744;18.206;2022-09-03T05:06:27;0.70;;;0.70;;
8683;SDS011;4379;59.744;18.206;2022-09-03T05:08:55;0.80;;;0.80;;
8683;SDS011;4379;59.744;18.206;2022-09-03T05:11:24;0.77;;;0.70;;
8683;SDS011;4379;59.744;18.206;2022-09-03T05:13:52;0.90;;;0.73;;
8683;SDS011;4379;59.744;18.206;2022-09-03T05:16:22;0.80;;;0.80;;
8683;SDS011;4379;59.744;18.206;2022-09-03T05:18:51;0.60;;;0.60;;
8683;SDS011;4379;59.744;18.206;2022-09-03T05:21:20;0.70;;;0.70;;
8683;SDS011;4379;59.744;18.206;2022-09-03T05:23:48;0.73;;;0.70;;
8683;SDS011;4379;59.744;18.206;2022-09-03T05:26:17;0.70;;;0.70;;
8683;SDS011;4379;59.744;18.206;2022-09-03T05:28:54;0.57;;;0.57;;
8683;SDS011;4379;59.744;18.206;2022-09-03T05:31:23;0.60;;;0.60;;
8683;SDS011;4379;59.744;18.206;2022-09-03T05:33:54;0.80;;;0.80;;
8683;SDS011;4379;59.744;18.206;2022-09-03T05:36:25;0.70;;;0.70;;
8683;SDS011;4379;59.744;18.206;2022-09-03T05:38:54;0.60;;;0.60;;
8683;SDS011;4379;59.744;18.206;2022-09-03T05:41:24;0.70;;;0.70;;
8683;SDS011;4379;59.744;18.206;2022-09-03T05:43:52;0.63;;;0.63;;
8683;SDS011;4379;59.744;18.206;2022-09-03T05:46:22;1.87;;;0.90;;
8683;SDS011;4379;59.744;18.206;2022-09-03T05:49:01;0.57;;;0.57;;
8683;SDS011;4379;59.744;18.206;2022-09-03T05:51:30;1.43;;;0.60;;
8683;SDS011;4379;59.744;18.206;2022-09-03T05:53:59;0.40;;;0.40;;
8683;SDS011;4379;59.744;18.206;2022-09-03T05:56:28;0.90;;;0.60;;
8683;SDS011;4379;59.744;18.206;2022-09-03T05:58:58;0.50;;;0.50;;
8683;SDS011;4379;59.744;18.206;2022-09-03T06:01:29;1.17;;;0.50;;
8683;SDS011;4379;59.744;18.206;2022-09-03T06:04:05;0.93;;;0.93;;
8683;SDS011;4379;59.744;18.206;2022-09-03T06:06:37;0.77;;;0.60;;
8683;SDS011;4379;59.744;18.206;2022-09-03T06:09:11;0.50;;;0.50;;
8683;SDS011;4379;59.744;18.206;2022-09-03T06:11:45;0.60;;;0.60;;
8683;SDS011;4379;59.744;18.206;2022-09-03T06:14:15;3.63;;;0.40;;
8683;SDS011;4379;59.744;18.206;2022-09-03T06:16:44;0.50;;;0.50;;
8683;SDS011;4379;59.744;18.206;2022-09-03T06:19:15;0.50;;;0.50;;
8683;SDS011;4379;59.744;18.206;2022-09-03T06:21:43;1.27;;;0.70;;
8683;SDS011;4379;59.744;18.206;2022-09-03T06:24:13;0.50;;;0.50;;
8683;SDS011;4379;59.744;18.206;2022-09-03T06:26:46;0.77;;;0.67;;
8683;SDS011;4379;59.744;18.206;2022-09-03T06:29:13;0.80;;;0.80;;
8683;SDS011;4379;59.744;18.206;2022-09-03T06:31:41;1.33;;;0.73;;
8683;SDS011;4379;59.744;18.206;2022-09-03T06:34:09;0.90;;;0.90;;
8683;SDS011;4379;59.744;18.206;2022-09-03T06:36:38;2.77;;;0.80;;
8683;SDS011;4379;59.744;18.206;2022-09-03T06:39:06;1.17;;;1.17;;
8683;SDS011;4379;59.744;18.206;2022-09-03T06:41:35;1.20;;;1.20;;
8683;SDS011;4379;59.744;18.206;2022-09-03T06:44:04;1.50;;;1.40;;
8683;SDS011;4379;59.744;18.206;2022-09-03T06:46:38;1.13;;;0.90;;
8683;SDS011;4379;59.744;18.206;2022-09-03T06:49:09;1.50;;;1.40;;
8683;SDS011;4379;59.744;18.206;2022-09-03T06:51:37;1.37;;;1.37;;
8683;SDS011;4379;59.744;18.206;2022-09-03T06:54:05;1.33;;;1.10;;
8683;SDS011;4379;59.744;18.206;2022-09-03T06:56:35;0.87;;;0.87;;
8683;SDS011;4379;59.744;18.206;2022-09-03T06:59:07;0.93;;;0.93;;
8683;SDS011;4379;59.744;18.206;2022-09-03T07:01:37;0.83;;;0.83;;
8683;SDS011;4379;59.744;18.206;2022-09-03T07:04:11;0.80;;;0.80;;
8683;SDS011;4379;59.744;18.206;2022-09-03T07:06:42;0.90;;;0.90;;
8683;SDS011;4379;59.744;18.206;2022-09-03T07:09:10;1.33;;;0.85;;
8683;SDS011;4379;59.744;18.206;2022-09-03T07:11:39;0.90;;;0.60;;
8683;SDS011;4379;59.744;18.206;2022-09-03T07:14:14;0.80;;;0.80;;
8683;SDS011;4379;59.744;18.206;2022-09-03T07:16:46;0.65;;;0.65;;
8683;SDS011;4379;59.744;18.206;2022-09-03T07:19:15;0.60;;;0.60;;
8683;SDS011;4379;59.744;18.206;2022-09-03T07:21:43;0.70;;;0.70;;
8683;SDS011;4379;59.744;18.206;2022-09-03T07:24:16;1.10;;;0.68;;
8683;SDS011;4379;59.744;18.206;2022-09-03T07:26:45;0.60;;;0.60;;
8683;SDS011;4379;59.744;18.206;2022-09-03T07:29:14;0.60;;;0.60;;
8683;SDS011;4379;59.744;18.206;2022-09-03T07:31:46;0.40;;;0.40;;
8683;SDS011;4379;59.744;18.206;2022-09-03T07:34:18;0.50;;;0.50;;
8683;SDS011;4379;59.744;18.206;2022-09-03T07:36:47;1.90;;;0.60;;
8683;SDS011;4379;59.744;18.206;2022-09-03T07:39:17;0.70;;;0.70;;
8683;SDS011;4379;59.744;18.206;2022-09-03T07:41:45;0.55;;;0.55;;
8683;SDS011;4379;59.744;18.206;2022-09-03T07:44:14;0.50;;;0.50;;
8683;SDS011;4379;59.744;18.206;2022-09-03T07:46:45;0.40;;;0.40;;
8683;SDS011;4379;59.744;18.206;2022-09-03T07:49:13;0.47;;;0.47;;
8683;SDS011;4379;59.744;18.206;2022-09-03T07:51:41;2.00;;;0.50;;
8683;SDS011;4379;59.744;18.206;2022-09-03T07:54:11;0.50;;;0.50;;
8683;SDS011;4379;59.744;18.206;2022-09-03T07:56:39;0.65;;;0.65;;
8683;SDS011;4379;59.744;18.206;2022-09-03T07:59:06;1.00;;;0.65;;
8683;SDS011;4379;59.744;18.206;2022-09-03T08:01:35;0.75;;;0.70;;
8683;SDS011;4379;59.744;18.206;2022-09-03T08:04:04;0.60;;;0.60;;
8683;SDS011;4379;59.744;18.206;2022-09-03T08:06:35;0.52;;;0.52;;
8683;SDS011;4379;59.744;18.206;2022-09-03T08:09:05;0.63;;;0.50;;
8683;SDS011;4379;59.744;18.206;2022-09-03T08:11:38;0.80;;;0.80;;
8683;SDS011;4379;59.744;18.206;2022-09-03T08:14:09;0.55;;;0.55;;
8683;SDS011;4379;59.744;18.206;2022-09-03T08:16:39;0.57;;;0.57;;
8683;SDS011;4379;59.744;18.206;2022-09-03T08:19:09;0.40;;;0.40;;
8683;SDS011;4379;59.744;18.206;2022-09-03T08:21:39;0.40;;;0.40;;
8683;SDS011;4379;59.744;18.206;2022-09-03T08:24:08;1.85;;;0.50;;
8683;SDS011;4379;59.744;18.206;2022-09-03T08:26:40;0.30;;;0.30;;
8683;SDS011;4379;59.744;18.206;2022-09-03T08:29:16;0.75;;;0.47;;
8683;SDS011;4379;59.744;18.206;2022-09-03T08:31:44;0.40;;;0.40;;
8683;SDS011;4379;59.744;18.206;2022-09-03T08:34:12;0.60;;;0.60;;
8683;SDS011;4379;59.744;18.206;2022-09-03T08:36:40;0.55;;;0.50;;
8683;SDS011;4379;59.744;18.206;2022-09-03T08:39:08;0.40;;;0.40;;
8683;SDS011;4379;59.744;18.206;2022-09-03T08:44:46;0.60;;;0.50;;
8683;SDS011;4379;59.744;18.206;2022-09-03T08:50:21;0.40;;;0.40;;
8683;SDS011;4379;59.744;18.206;2022-09-03T08:55:37;1.00;;;0.40;;
8683;SDS011;4379;59.744;18.206;2022-09-03T08:58:15;2.80;;;0.70;;
8683;SDS011;4379;59.744;18.206;2022-09-03T09:18:21;0.50;;;0.50;;
8683;SDS011;4379;59.744;18.206;2022-09-03T09:24:19;0.40;;;0.40;;
8683;SDS011;4379;59.744;18.206;2022-09-03T09:26:54;0.40;;;0.40;;
8683;SDS011;4379;59.744;18.206;2022-09-03T09:29:29;0.50;;;0.50;;
8683;SDS011;4379;59.744;18.206;2022-09-03T09:31:58;0.50;;;0.50;;
8683;SDS011;4379;59.744;18.206;2022-09-03T09:34:26;0.32;;;0.32;;
8683;SDS011;4379;59.744;18.206;2022-09-03T09:36:56;0.65;;;0.40;;
8683;SDS011;4379;59.744;18.206;2022-09-03T09:39:23;0.40;;;0.40;;
8683;SDS011;4379;59.744;18.206;2022-09-03T09:42:01;0.52;;;0.52;;
8683;SDS011;4379;59.744;18.206;2022-09-03T09:44:37;0.30;;;0.30;;
8683;SDS011;4379;59.744;18.206;2022-09-03T09:47:10;0.45;;;0.40;;
8683;SDS011;4379;59.744;18.206;2022-09-03T09:49:51;0.40;;;0.40;;
8683;SDS011;4379;59.744;18.206;2022-09-03T09:52:22;0.40;;;0.40;;
8683;SDS011;4379;59.744;18.206;2022-09-03T09:55:37;0.70;;;0.70;;
8683;SDS011;4379;59.744;18.206;2022-09-03T09:57:46;0.38;;;0.38;;
8683;SDS011;4379;59.744;18.206;2022-09-03T10:00:15;0.50;;;0.50;;
8683;SDS011;4379;59.744;18.206;2022-09-03T10:02:47;0.47;;;0.47;;
8683;SDS011;4379;59.744;18.206;2022-09-03T10:05:20;0.75;;;0.30;;
8683;SDS011;4379;59.744;18.206;2022-09-03T10:10:27;0.60;;;0.50;;
8683;SDS011;4379;59.744;18.206;2022-09-03T10:12:59;0.30;;;0.30;;
8683;SDS011;4379;59.744;18.206;2022-09-03T10:15:41;0.40;;;0.40;;
8683;SDS011;4379;59.744;18.206;2022-09-03T10:18:18;0.40;;;0.40;;
8683;SDS011;4379;59.744;18.206;2022-09-03T10:23:47;0.30;;;0.30;;
8683;SDS011;4379;59.744;18.206;2022-09-03T10:26:20;0.43;;;0.43;;
8683;SDS011;4379;59.744;18.206;2022-09-03T10:29:01;0.50;;;0.50;;
8683;SDS011;4379;59.744;18.206;2022-09-03T10:37:39;0.50;;;0.45;;
8683;SDS011;4379;59.744;18.206;2022-09-03T10:42:54;0.40;;;0.40;;
8683;SDS011;4379;59.744;18.206;2022-09-03T10:45:41;0.40;;;0.40;;
8683;SDS011;4379;59.744;18.206;2022-09-03T10:50:49;2.08;;;0.40;;
8683;SDS011;4379;59.744;18.206;2022-09-03T10:56:20;0.40;;;0.40;;
8683;SDS011;4379;59.744;18.206;2022-09-03T11:07:21;0.50;;;0.50;;
8683;SDS011;4379;59.744;18.206;2022-09-03T11:12:35;0.50;;;0.50;;
8683;SDS011;4379;59.744;18.206;2022-09-03T11:15:15;1.10;;;0.50;;
8683;SDS011;4379;59.744;18.206;2022-09-03T11:17:56;0.43;;;0.40;;
8683;SDS011;4379;59.744;18.206;2022-09-03T11:20:41;0.55;;;0.47;;
8683;SDS011;4379;59.744;18.206;2022-09-03T11:23:10;0.47;;;0.38;;
8683;SDS011;4379;59.744;18.206;2022-09-03T11:25:42;0.40;;;0.40;;
8683;SDS011;4379;59.744;18.206;2022-09-03T11:28:22;0.40;;;0.40;;
8683;SDS011;4379;59.744;18.206;2022-09-03T11:33:45;0.47;;;0.47;;
8683;SDS011;4379;59.744;18.206;2022-09-03T11:36:26;0.30;;;0.30;;
8683;SDS011;4379;59.744;18.206;2022-09-03T11:38:59;0.30;;;0.30;;
8683;SDS011;4379;59.744;18.206;2022-09-03T11:41:38;0.40;;;0.40;;
8683;SDS011;4379;59.744;18.206;2022-09-03T11:44:18;0.60;;;0.57;;
8683;SDS011;4379;59.744;18.206;2022-09-03T11:46:53;0.52;;;0.50;;
8683;SDS011;4379;59.744;18.206;2022-09-03T11:49:30;0.85;;;0.50;;
8683;SDS011;4379;59.744;18.206;2022-09-03T11:52:02;0.40;;;0.40;;
8683;SDS011;4379;59.744;18.206;2022-09-03T11:54:41;0.43;;;0.43;;
8683;SDS011;4379;59.744;18.206;2022-09-03T11:57:11;0.40;;;0.40;;
8683;SDS011;4379;59.744;18.206;2022-09-03T11:59:48;0.40;;;0.40;;
8683;SDS011;4379;59.744;18.206;2022-09-03T12:02:31;0.47;;;0.47;;
8683;SDS011;4379;59.744;18.206;2022-09-03T12:18:45;0.40;;;0.40;;
8683;SDS011;4379;59.744;18.206;2022-09-03T12:21:18;0.40;;;0.40;;
8683;SDS011;4379;59.744;18.206;2022-09-03T12:23:49;0.40;;;0.40;;
8683;SDS011;4379;59.744;18.206;2022-09-03T12:26:24;0.45;;;0.45;;
8683;SDS011;4379;59.744;18.206;2022-09-03T12:28:56;0.20;;;0.20;;
8683;SDS011;4379;59.744;18.206;2022-09-03T12:31:29;0.50;;;0.50;;
8683;SDS011;4379;59.744;18.206;2022-09-03T12:34:01;0.73;;;0.47;;
8683;SDS011;4379;59.744;18.206;2022-09-03T12:36:38;0.40;;;0.40;;
8683;SDS011;4379;59.744;18.206;2022-09-03T12:39:09;0.20;;;0.20;;
8683;SDS011;4379;59.744;18.206;2022-09-03T12:44:30;0.40;;;0.40;;
8683;SDS011;4379;59.744;18.206;2022-09-03T12:52:41;0.50;;;0.50;;
8683;SDS011;4379;59.744;18.206;2022-09-03T12:57:59;0.40;;;0.40;;
8683;SDS011;4379;59.744;18.206;2022-09-03T13:00:37;0.40;;;0.40;;
8683;SDS011;4379;59.744;18.206;2022-09-03T13:05:49;0.50;;;0.50;;
8683;SDS011;4379;59.744;18.206;2022-09-03T13:08:25;0.52;;;0.38;;
8683;SDS011;4379;59.744;18.206;2022-09-03T13:10:56;0.40;;;0.40;;
8683;SDS011;4379;59.744;18.206;2022-09-03T13:13:27;0.50;;;0.50;;
8683;SDS011;4379;59.744;18.206;2022-09-03T13:18:55;0.50;;;0.50;;
8683;SDS011;4379;59.744;18.206;2022-09-03T13:21:40;2.08;;;0.47;;
8683;SDS011;4379;59.744;18.206;2022-09-03T13:24:36;0.38;;;0.38;;
8683;SDS011;4379;59.744;18.206;2022-09-03T13:35:23;0.40;;;0.40;;
8683;SDS011;4379;59.744;18.206;2022-09-03T13:43:53;0.50;;;0.50;;
8683;SDS011;4379;59.744;18.206;2022-09-03T13:46:30;0.40;;;0.40;;
8683;SDS011;4379;59.744;18.206;2022-09-03T13:52:46;1.25;;;0.43;;
8683;SDS011;4379;59.744;18.206;2022-09-03T14:11:52;0.65;;;0.50;;
8683;SDS011;4379;59.744;18.206;2022-09-03T14:20:01;0.40;;;0.40;;
8683;SDS011;4379;59.744;18.206;2022-09-03T14:22:49;0.57;;;0.40;;
8683;SDS011;4379;59.744;18.206;2022-09-03T14:25:33;1.25;;;0.50;;
8683;SDS011;4379;59.744;18.206;2022-09-03T14:28:14;1.15;;;0.40;;
8683;SDS011;4379;59.744;18.206;2022-09-03T14:31:06;0.55;;;0.50;;
8683;SDS011;4379;59.744;18.206;2022-09-03T14:42:16;0.40;;;0.40;;
8683;SDS011;4379;59.744;18.206;2022-09-03T14:45:17;0.60;;;0.60;;
8683;SDS011;4379;59.744;18.206;2022-09-03T14:56:39;0.45;;;0.43;;
8683;SDS011;4379;59.744;18.206;2022-09-03T15:05:08;0.50;;;0.50;;
8683;SDS011;4379;59.744;18.206;2022-09-03T15:10:46;0.45;;;0.45;;
8683;SDS011;4379;59.744;18.206;2022-09-03T15:13:29;0.40;;;0.40;;
8683;SDS011;4379;59.744;18.206;2022-09-03T15:16:25;0.30;;;0.30;;
8683;SDS011;4379;59.744;18.206;2022-09-03T15:19:10;0.40;;;0.40;;
8683;SDS011;4379;59.744;18.206;2022-09-03T15:22:05;0.40;;;0.40;;
8683;SDS011;4379;59.744;18.206;2022-09-03T15:24:54;0.30;;;0.30;;
8683;SDS011;4379;59.744;18.206;2022-09-03T15:27:50;0.40;;;0.40;;
8683;SDS011;4379;59.744;18.206;2022-09-03T15:30:42;0.85;;;0.40;;
8683;SDS011;4379;59.744;18.206;2022-09-03T15:33:27;0.30;;;0.30;;
8683;SDS011;4379;59.744;18.206;2022-09-03T15:38:50;0.40;;;0.40;;
8683;SDS011;4379;59.744;18.206;2022-09-03T15:41:39;0.47;;;0.40;;
8683;SDS011;4379;59.744;18.206;2022-09-03T15:44:13;0.32;;;0.32;;
8683;SDS011;4379;59.744;18.206;2022-09-03T15:52:01;0.43;;;0.43;;
8683;SDS011;4379;59.744;18.206;2022-09-03T15:54:42;0.38;;;0.38;;
8683;SDS011;4379;59.744;18.206;2022-09-03T16:00:20;0.50;;;0.50;;
8683;SDS011;4379;59.744;18.206;2022-09-03T16:05:56;0.60;;;0.60;;
8683;SDS011;4379;59.744;18.206;2022-09-03T16:08:31;0.40;;;0.40;;
8683;SDS011;4379;59.744;18.206;2022-09-03T16:19:29;0.50;;;0.50;;
8683;SDS011;4379;59.744;18.206;2022-09-03T16:22:11;0.40;;;0.40;;
8683;SDS011;4379;59.744;18.206;2022-09-03T16:27:45;0.47;;;0.47;;
8683;SDS011;4379;59.744;18.206;2022-09-03T16:33:42;0.32;;;0.32;;
8683;SDS011;4379;59.744;18.206;2022-09-03T16:50:53;0.38;;;0.38;;
8683;SDS011;4379;59.744;18.206;2022-09-03T16:57:28;0.45;;;0.45;;
8683;SDS011;4379;59.744;18.206;2022-09-03T17:00:20;1.55;;;0.68;;
8683;SDS011;4379;59.744;18.206;2022-09-03T17:03:09;0.50;;;0.50;;
8683;SDS011;4379;59.744;18.206;2022-09-03T17:09:09;0.30;;;0.30;;
8683;SDS011;4379;59.744;18.206;2022-09-03T17:11:58;0.43;;;0.43;;
8683;SDS011;4379;59.744;18.206;2022-09-03T17:20:34;0.40;;;0.40;;
8683;SDS011;4379;59.744;18.206;2022-09-03T17:23:29;0.38;;;0.38;;
8683;SDS011;4379;59.744;18.206;2022-09-03T17:28:47;0.52;;;0.52;;
8683;SDS011;4379;59.744;18.206;2022-09-03T17:37:20;0.50;;;0.50;;
8683;SDS011;4379;59.744;18.206;2022-09-03T17:42:48;0.40;;;0.40;;
8683;SDS011;4379;59.744;18.206;2022-09-03T17:56:41;0.60;;;0.50;;
8683;SDS011;4379;59.744;18.206;2022-09-03T18:02:28;0.50;;;0.50;;
8683;SDS011;4379;59.744;18.206;2022-09-03T18:08:01;1.37;;;0.53;;
8683;SDS011;4379;59.744;18.206;2022-09-03T18:17:00;0.43;;;0.43;;
8683;SDS011;4379;59.744;18.206;2022-09-03T18:19:38;0.60;;;0.60;;
8683;SDS011;4379;59.744;18.206;2022-09-03T18:26:10;0.50;;;0.50;;
8683;SDS011;4379;59.744;18.206;2022-09-03T18:32:02;0.43;;;0.43;;
8683;SDS011;4379;59.744;18.206;2022-09-03T18:34:49;1.70;;;0.77;;
8683;SDS011;4379;59.744;18.206;2022-09-03T18:37:37;0.40;;;0.40;;
8683;SDS011;4379;59.744;18.206;2022-09-03T18:40:28;0.50;;;0.50;;
8683;SDS011;4379;59.744;18.206;2022-09-03T18:50:28;1.07;;;0.50;;
8683;SDS011;4379;59.744;18.206;2022-09-03T18:53:34;0.50;;;0.50;;
8683;SDS011;4379;59.744;18.206;2022-09-03T18:59:44;0.53;;;0.53;;
8683;SDS011;4379;59.744;18.206;2022-09-03T19:09:10;0.40;;;0.40;;
8683;SDS011;4379;59.744;18.206;2022-09-03T19:12:21;0.50;;;0.50;;
8683;SDS011;4379;59.744;18.206;2022-09-03T19:15:26;0.83;;;0.60;;
8683;SDS011;4379;59.744;18.206;2022-09-03T19:21:46;0.60;;;0.60;;
8683;SDS011;4379;59.744;18.206;2022-09-03T19:24:37;0.40;;;0.40;;
8683;SDS011;4379;59.744;18.206;2022-09-03T19:52:27;0.50;;;0.50;;
8683;SDS011;4379;59.744;18.206;2022-09-03T19:55:34;2.07;;;0.53;;
8683;SDS011;4379;59.744;18.206;2022-09-03T19:58:24;1.60;;;0.60;;
8683;SDS011;4379;59.744;18.206;2022-09-03T20:01:13;0.97;;;0.47;;
8683;SDS011;4379;59.744;18.206;2022-09-03T20:04:03;0.80;;;0.70;;
8683;SDS011;4379;59.744;18.206;2022-09-03T20:06:58;1.00;;;0.53;;
8683;SDS011;4379;59.744;18.206;2022-09-03T20:09:45;0.50;;;0.50;;
8683;SDS011;4379;59.744;18.206;2022-09-03T20:12:37;0.60;;;0.60;;
8683;SDS011;4379;59.744;18.206;2022-09-03T20:15:09;1.33;;;0.60;;
8683;SDS011;4379;59.744;18.206;2022-09-03T20:17:38;0.50;;;0.50;;
8683;SDS011;4379;59.744;18.206;2022-09-03T20:22:59;0.57;;;0.57;;
8683;SDS011;4379;59.744;18.206;2022-09-03T20:28:12;0.70;;;0.57;;
8683;SDS011;4379;59.744;18.206;2022-09-03T20:31:09;0.60;;;0.53;;
8683;SDS011;4379;59.744;18.206;2022-09-03T20:34:06;0.50;;;0.50;;
8683;SDS011;4379;59.744;18.206;2022-09-03T20:36:42;1.30;;;0.50;;
8683;SDS011;4379;59.744;18.206;2022-09-03T20:39:52;0.60;;;0.60;;
8683;SDS011;4379;59.744;18.206;2022-09-03T20:46:07;2.13;;;0.77;;
8683;SDS011;4379;59.744;18.206;2022-09-03T20:48:22;0.67;;;0.67;;
8683;SDS011;4379;59.744;18.206;2022-09-03T20:51:19;2.07;;;0.60;;
8683;SDS011;4379;59.744;18.206;2022-09-03T20:54:12;0.77;;;0.70;;
8683;SDS011;4379;59.744;18.206;2022-09-03T21:10:53;1.40;;;0.67;;
8683;SDS011;4379;59.744;18.206;2022-09-03T21:19:15;3.33;;;1.10;;
8683;SDS011;4379;59.744;18.206;2022-09-03T21:22:23;1.03;;;0.80;;
8683;SDS011;4379;59.744;18.206;2022-09-03T21:25:00;1.13;;;1.03;;
8683;SDS011;4379;59.744;18.206;2022-09-03T21:30:49;1.77;;;0.70;;
8683;SDS011;4379;59.744;18.206;2022-09-03T21:33:28;1.20;;;0.77;;
8683;SDS011;4379;59.744;18.206;2022-09-03T21:36:01;0.67;;;0.67;;
8683;SDS011;4379;59.744;18.206;2022-09-03T21:38:44;1.70;;;0.77;;
8683;SDS011;4379;59.744;18.206;2022-09-03T21:41:22;0.70;;;0.70;;
8683;SDS011;4379;59.744;18.206;2022-09-03T21:44:06;1.43;;;0.77;;
8683;SDS011;4379;59.744;18.206;2022-09-03T21:49:19;3.03;;;0.77;;
8683;SDS011;4379;59.744;18.206;2022-09-03T21:54:32;1.73;;;0.70;;
8683;SDS011;4379;59.744;18.206;2022-09-03T22:02:35;0.60;;;0.60;;
8683;SDS011;4379;59.744;18.206;2022-09-03T22:05:03;0.80;;;0.80;;
8683;SDS011;4379;59.744;18.206;2022-09-03T22:07:50;1.63;;;0.73;;
8683;SDS011;4379;59.744;18.206;2022-09-03T22:13:16;1.03;;;0.80;;
8683;SDS011;4379;59.744;18.206;2022-09-03T22:15:54;1.20;;;0.90;;
8683;SDS011;4379;59.744;18.206;2022-09-03T22:18:30;0.90;;;0.90;;
8683;SDS011;4379;59.744;18.206;2022-09-03T22:24:09;1.37;;;0.70;;
8683;SDS011;4379;59.744;18.206;2022-09-03T22:27:05;0.77;;;0.77;;
8683;SDS011;4379;59.744;18.206;2022-09-03T22:29:50;0.80;;;0.80;;
8683;SDS011;4379;59.744;18.206;2022-09-03T22:40:34;0.80;;;0.80;;
8683;SDS011;4379;59.744;18.206;2022-09-03T22:46:13;1.80;;;0.70;;
8683;SDS011;4379;59.744;18.206;2022-09-03T22:51:11;1.20;;;0.70;;
8683;SDS011;4379;59.744;18.206;2022-09-03T22:56:48;0.70;;;0.70;;
8683;SDS011;4379;59.744;18.206;2022-09-03T22:59:19;0.60;;;0.60;;
8683;SDS011;4379;59.744;18.206;2022-09-03T23:04:45;0.83;;;0.83;;
8683;SDS011;4379;59.744;18.206;2022-09-03T23:10:21;0.83;;;0.83;;
8683;SDS011;4379;59.744;18.206;2022-09-03T23:13:10;0.70;;;0.70;;
8683;SDS011;4379;59.744;18.206;2022-09-03T23:15:46;0.93;;;0.87;;